sensor_id;sensor_type;location;lat;lon;timestamp;temperature;humidity
43414;DHT22;29013;49.676;8.606;2023-02-12T00:00:29;6.4;99.9
43414;DHT22;29013;49.676;8.606;2023-02-12T00:05:51;6.5;99.9
43414;DHT22;29013;49.676;8.606;2023-02-12T00:11:17;6.6;99.9
43414;DHT22;29013;49.676;8.606;2023-02-12T00:16:38;6.7;99.9
43414;DHT22;29013;49.676;8.606;2023-02-12T00:22:02;6.7;99.9
43414;DHT22;29013;49.676;8.606;2023-02-12T00:27:25;6.8;99.9
43414;DHT22;29013;49.676;8.606;2023-02-12T00:32:45;6.9;99.9
43414;DHT22;29013;49.676;8.606;2023-02-12T00:38:03;6.8;99.9
43414;DHT22;29013;49.676;8.606;2023-02-12T00:43:39;6.6;99.9
43414;DHT22;29013;49.676;8.606;2023-02-12T00:49:03;6.5;99.9
43414;DHT22;29013;49.676;8.606;2023-02-12T00:54:28;6.4;99.9
43414;DHT22;29013;49.676;8.606;2023-02-12T00:59:50;6.5;99.9
43414;DHT22;29013;49.676;8.606;2023-02-12T01:05:14;6.6;99.9
43414;DHT22;29013;49.676;8.606;2023-02-12T01:10:59;6.7;99.9
43414;DHT22;29013;49.676;8.606;2023-02-12T01:16:20;6.9;99.9
43414;DHT22;29013;49.676;8.606;2023-02-12T01:21:40;6.9;99.9
43414;DHT22;29013;49.676;8.606;2023-02-12T01:26:59;6.9;99.9
43414;DHT22;29013;49.676;8.606;2023-02-12T01:32:23;6.7;99.9
43414;DHT22;29013;49.676;8.606;2023-02-12T01:37:45;6.6;99.9
43414;DHT22;29013;49.676;8.606;2023-02-12T01:43:10;6.5;99.9
43414;DHT22;29013;49.676;8.606;2023-02-12T01:48:31;6.6;99.9
43414;DHT22;29013;49.676;8.606;2023-02-12T01:53:51;6.7;99.9
43414;DHT22;29013;49.676;8.606;2023-02-12T01:59:14;6.8;99.9
43414;DHT22;29013;49.676;8.606;2023-02-12T02:04:40;6.8;99.9
43414;DHT22;29013;49.676;8.606;2023-02-12T02:09:57;6.9;99.9
43414;DHT22;29013;49.676;8.606;2023-02-12T02:15:16;6.9;99.9
43414;DHT22;29013;49.676;8.606;2023-02-12T02:21:08;6.9;99.9
43414;DHT22;29013;49.676;8.606;2023-02-12T02:32:40;6.9;99.9
43414;DHT22;29013;49.676;8.606;2023-02-12T02:38:12;6.9;99.9
43414;DHT22;29013;49.676;8.606;2023-02-12T02:43:30;6.7;99.9
43414;DHT22;29013;49.676;8.606;2023-02-12T02:48:53;6.5;99.9
43414;DHT22;29013;49.676;8.606;2023-02-12T02:54:18;6.4;99.9
43414;DHT22;29013;49.676;8.606;2023-02-12T03:00:03;6.4;99.9
43414;DHT22;29013;49.676;8.606;2023-02-12T03:05:25;6.7;99.9
43414;DHT22;29013;49.676;8.606;2023-02-12T03:10:49;6.7;99.9
43414;DHT22;29013;49.676;8.606;2023-02-12T03:16:13;6.8;99.9
43414;DHT22;29013;49.676;8.606;2023-02-12T03:21:34;6.8;99.9
43414;DHT22;29013;49.676;8.606;2023-02-12T03:27:16;6.8;99.9
43414;DHT22;29013;49.676;8.606;2023-02-12T03:32:41;7.0;99.9
43414;DHT22;29013;49.676;8.606;2023-02-12T03:38:06;7.0;99.9
43414;DHT22;29013;49.676;8.606;2023-02-12T03:43:28;7.0;99.9
43414;DHT22;29013;49.676;8.606;2023-02-12T03:48:51;7.0;99.9
43414;DHT22;29013;49.676;8.606;2023-02-12T03:54:12;6.8;99.9
43414;DHT22;29013;49.676;8.606;2023-02-12T03:59:35;6.6;99.9
43414;DHT22;29013;49.676;8.606;2023-02-12T04:05:02;6.5;99.9
43414;DHT22;29013;49.676;8.606;2023-02-12T04:10:26;6.4;99.9
43414;DHT22;29013;49.676;8.606;2023-02-12T04:16:19;6.5;99.9
43414;DHT22;29013;49.676;8.606;2023-02-12T04:21:45;6.6;99.9
43414;DHT22;29013;49.676;8.606;2023-02-12T04:27:08;6.5;99.9
43414;DHT22;29013;49.676;8.606;2023-02-12T04:32:32;6.4;99.9
43414;DHT22;29013;49.676;8.606;2023-02-12T04:37:54;6.4;99.9
43414;DHT22;29013;49.676;8.606;2023-02-12T04:43:41;6.5;99.9
43414;DHT22;29013;49.676;8.606;2023-02-12T04:48:59;6.8;99.9
43414;DHT22;29013;49.676;8.606;2023-02-12T04:54:19;6.8;99.9
43414;DHT22;29013;49.676;8.606;2023-02-12T04:59:41;6.9;99.9
43414;DHT22;29013;49.676;8.606;2023-02-12T05:05:06;6.9;99.9
43414;DHT22;29013;49.676;8.606;2023-02-12T05:10:31;7.0;99.9
43414;DHT22;29013;49.676;8.606;2023-02-12T05:15:55;7.0;99.9
43414;DHT22;29013;49.676;8.606;2023-02-12T05:21:15;6.8;99.9
43414;DHT22;29013;49.676;8.606;2023-02-12T05:26:40;6.7;99.9
43414;DHT22;29013;49.676;8.606;2023-02-12T05:32:02;6.7;99.9
43414;DHT22;29013;49.676;8.606;2023-02-12T05:37:27;6.8;99.9
43414;DHT22;29013;49.676;8.606;2023-02-12T05:42:52;6.9;99.9
43414;DHT22;29013;49.676;8.606;2023-02-12T05:48:34;6.8;99.9
43414;DHT22;29013;49.676;8.606;2023-02-12T05:54:14;7.0;99.9
43414;DHT22;29013;49.676;8.606;2023-02-12T05:59:34;7.1;99.9
43414;DHT22;29013;49.676;8.606;2023-02-12T06:04:57;7.1;99.9
43414;DHT22;29013;49.676;8.606;2023-02-12T06:10:15;7.1;99.9
43414;DHT22;29013;49.676;8.606;2023-02-12T06:15:39;7.0;99.9
43414;DHT22;29013;49.676;8.606;2023-02-12T06:21:26;6.8;99.9
43414;DHT22;29013;49.676;8.606;2023-02-12T06:26:44;7.0;99.9
43414;DHT22;29013;49.676;8.606;2023-02-12T06:32:05;6.9;99.9
43414;DHT22;29013;49.676;8.606;2023-02-12T06:37:29;6.7;99.9
43414;DHT22;29013;49.676;8.606;2023-02-12T06:42:54;6.6;99.9
43414;DHT22;29013;49.676;8.606;2023-02-12T06:48:19;6.6;99.9
43414;DHT22;29013;49.676;8.606;2023-02-12T06:54:09;6.6;99.9
43414;DHT22;29013;49.676;8.606;2023-02-12T06:59:23;6.8;99.9
43414;DHT22;29013;49.676;8.606;2023-02-12T07:04:47;6.8;99.9
43414;DHT22;29013;49.676;8.606;2023-02-12T07:10:13;7.0;99.9
43414;DHT22;29013;49.676;8.606;2023-02-12T07:15:33;7.1;99.9
43414;DHT22;29013;49.676;8.606;2023-02-12T07:20:52;7.2;99.9
43414;DHT22;29013;49.676;8.606;2023-02-12T07:26:12;7.3;99.9
43414;DHT22;29013;49.676;8.606;2023-02-12T07:31:34;7.4;99.9
43414;DHT22;29013;49.676;8.606;2023-02-12T07:36:56;7.5;99.9
43414;DHT22;29013;49.676;8.606;2023-02-12T07:42:20;7.5;99.9
43414;DHT22;29013;49.676;8.606;2023-02-12T07:47:43;7.5;99.9
43414;DHT22;29013;49.676;8.606;2023-02-12T07:53:04;7.2;99.9
43414;DHT22;29013;49.676;8.606;2023-02-12T07:58:28;7.0;99.9
43414;DHT22;29013;49.676;8.606;2023-02-12T08:03:53;7.0;99.9
43414;DHT22;29013;49.676;8.606;2023-02-12T08:09:17;6.9;99.9
43414;DHT22;29013;49.676;8.606;2023-02-12T08:14:39;7.0;99.9
43414;DHT22;29013;49.676;8.606;2023-02-12T08:19:57;7.1;99.9
43414;DHT22;29013;49.676;8.606;2023-02-12T08:25:16;7.2;99.9
43414;DHT22;29013;49.676;8.606;2023-02-12T08:30:39;7.4;99.9
43414;DHT22;29013;49.676;8.606;2023-02-12T08:36:06;7.5;99.9
43414;DHT22;29013;49.676;8.606;2023-02-12T08:41:25;7.7;99.9
43414;DHT22;29013;49.676;8.606;2023-02-12T08:47:09;7.8;99.9
43414;DHT22;29013;49.676;8.606;2023-02-12T08:52:27;8.0;99.9
43414;DHT22;29013;49.676;8.606;2023-02-12T08:57:49;7.9;99.9
43414;DHT22;29013;49.676;8.606;2023-02-12T09:03:08;7.8;99.9
43414;DHT22;29013;49.676;8.606;2023-02-12T09:09:11;7.7;99.9
43414;DHT22;29013;49.676;8.606;2023-02-12T09:14:33;8.0;99.9
43414;DHT22;29013;49.676;8.606;2023-02-12T09:19:57;8.1;99.9
43414;DHT22;29013;49.676;8.606;2023-02-12T09:25:16;8.2;99.9
43414;DHT22;29013;49.676;8.606;2023-02-12T09:31:05;8.1;99.9
43414;DHT22;29013;49.676;8.606;2023-02-12T09:36:22;8.4;99.9
43414;DHT22;29013;49.676;8.606;2023-02-12T09:41:58;8.5;99.9
43414;DHT22;29013;49.676;8.606;2023-02-12T09:47:22;8.7;99.9
43414;DHT22;29013;49.676;8.606;2023-02-12T09:52:43;8.8;99.9
43414;DHT22;29013;49.676;8.606;2023-02-12T09:58:10;8.8;99.9
43414;DHT22;29013;49.676;8.606;2023-02-12T10:03:31;8.9;99.9
43414;DHT22;29013;49.676;8.606;2023-02-12T10:09:09;8.8;99.9
43414;DHT22;29013;49.676;8.606;2023-02-12T10:14:49;8.9;99.9
43414;DHT22;29013;49.676;8.606;2023-02-12T10:26:32;9.3;99.9
43414;DHT22;29013;49.676;8.606;2023-02-12T10:31:56;9.5;99.9
43414;DHT22;29013;49.676;8.606;2023-02-12T10:37:17;9.5;99.9
43414;DHT22;29013;49.676;8.606;2023-02-12T10:42:40;9.6;99.9
43414;DHT22;29013;49.676;8.606;2023-02-12T10:48:12;9.7;99.9
43414;DHT22;29013;49.676;8.606;2023-02-12T10:53:34;9.7;99.9
43414;DHT22;29013;49.676;8.606;2023-02-12T10:58:59;9.8;99.9
43414;DHT22;29013;49.676;8.606;2023-02-12T11:04:26;9.9;99.9
43414;DHT22;29013;49.676;8.606;2023-02-12T11:09:49;10.0;99.9
43414;DHT22;29013;49.676;8.606;2023-02-12T11:15:13;10.1;99.9
43414;DHT22;29013;49.676;8.606;2023-02-12T11:20:31;10.3;99.9
43414;DHT22;29013;49.676;8.606;2023-02-12T11:26:25;10.3;99.9
43414;DHT22;29013;49.676;8.606;2023-02-12T11:31:53;10.6;99.9
43414;DHT22;29013;49.676;8.606;2023-02-12T11:37:09;10.8;99.9
43414;DHT22;29013;49.676;8.606;2023-02-12T11:42:34;10.8;99.9
43414;DHT22;29013;49.676;8.606;2023-02-12T11:47:52;10.9;99.9
43414;DHT22;29013;49.676;8.606;2023-02-12T11:53:29;11.0;99.9
43414;DHT22;29013;49.676;8.606;2023-02-12T11:59:16;11.3;99.9
43414;DHT22;29013;49.676;8.606;2023-02-12T12:10:50;11.5;99.9
43414;DHT22;29013;49.676;8.606;2023-02-12T12:16:10;11.3;99.9
43414;DHT22;29013;49.676;8.606;2023-02-12T12:21:33;11.2;99.9
43414;DHT22;29013;49.676;8.606;2023-02-12T12:26:57;11.4;99.9
43414;DHT22;29013;49.676;8.606;2023-02-12T12:32:18;11.5;99.9
43414;DHT22;29013;49.676;8.606;2023-02-12T12:37:43;11.7;99.9
43414;DHT22;29013;49.676;8.606;2023-02-12T12:43:19;11.9;99.9
43414;DHT22;29013;49.676;8.606;2023-02-12T12:48:51;12.1;99.9
43414;DHT22;29013;49.676;8.606;2023-02-12T12:54:12;12.2;99.9
43414;DHT22;29013;49.676;8.606;2023-02-12T12:59:57;12.4;99.9
43414;DHT22;29013;49.676;8.606;2023-02-12T13:05:38;12.5;99.9
43414;DHT22;29013;49.676;8.606;2023-02-12T13:10:59;12.6;99.9
43414;DHT22;29013;49.676;8.606;2023-02-12T13:16:25;12.4;99.9
43414;DHT22;29013;49.676;8.606;2023-02-12T13:21:50;12.0;99.9
43414;DHT22;29013;49.676;8.606;2023-02-12T13:27:41;11.7;99.9
43414;DHT22;29013;49.676;8.606;2023-02-12T13:33:24;11.7;99.9
43414;DHT22;29013;49.676;8.606;2023-02-12T13:39:03;11.6;99.9
43414;DHT22;29013;49.676;8.606;2023-02-12T13:44:22;11.7;99.9
43414;DHT22;29013;49.676;8.606;2023-02-12T13:50:02;11.5;99.9
43414;DHT22;29013;49.676;8.606;2023-02-12T13:56:02;11.5;99.9
43414;DHT22;29013;49.676;8.606;2023-02-12T14:01:36;11.7;99.9
43414;DHT22;29013;49.676;8.606;2023-02-12T14:07:05;11.6;99.9
43414;DHT22;29013;49.676;8.606;2023-02-12T14:12:31;11.5;99.9
43414;DHT22;29013;49.676;8.606;2023-02-12T14:17:55;11.4;99.9
43414;DHT22;29013;49.676;8.606;2023-02-12T14:23:24;11.4;99.9
43414;DHT22;29013;49.676;8.606;2023-02-12T14:28:48;11.4;99.9
43414;DHT22;29013;49.676;8.606;2023-02-12T14:45:52;11.5;99.9
43414;DHT22;29013;49.676;8.606;2023-02-12T14:51:34;11.4;99.9
43414;DHT22;29013;49.676;8.606;2023-02-12T14:56:52;11.5;99.9
43414;DHT22;29013;49.676;8.606;2023-02-12T15:02:40;11.4;99.9
43414;DHT22;29013;49.676;8.606;2023-02-12T15:08:01;11.4;99.9
43414;DHT22;29013;49.676;8.606;2023-02-12T15:13:28;11.4;99.9
43414;DHT22;29013;49.676;8.606;2023-02-12T15:18:51;11.3;99.9
43414;DHT22;29013;49.676;8.606;2023-02-12T15:24:20;11.2;99.9
43414;DHT22;29013;49.676;8.606;2023-02-12T15:29:41;11.2;99.9
43414;DHT22;29013;49.676;8.606;2023-02-12T15:35:04;11.1;99.9
43414;DHT22;29013;49.676;8.606;2023-02-12T15:40:27;11.0;99.9
43414;DHT22;29013;49.676;8.606;2023-02-12T15:45:52;10.9;99.9
43414;DHT22;29013;49.676;8.606;2023-02-12T15:51:13;10.9;99.9
43414;DHT22;29013;49.676;8.606;2023-02-12T15:56:33;10.8;99.9
43414;DHT22;29013;49.676;8.606;2023-02-12T16:02:20;10.6;99.9
43414;DHT22;29013;49.676;8.606;2023-02-12T16:08:39;10.6;99.9
43414;DHT22;29013;49.676;8.606;2023-02-12T16:13:52;10.7;99.9
43414;DHT22;29013;49.676;8.606;2023-02-12T16:19:20;10.4;99.9
43414;DHT22;29013;49.676;8.606;2023-02-12T16:24:44;10.0;99.9
43414;DHT22;29013;49.676;8.606;2023-02-12T16:30:21;9.7;99.9
43414;DHT22;29013;49.676;8.606;2023-02-12T16:35:41;9.7;99.9
43414;DHT22;29013;49.676;8.606;2023-02-12T16:41:24;9.5;99.9
43414;DHT22;29013;49.676;8.606;2023-02-12T16:46:47;9.5;99.9
43414;DHT22;29013;49.676;8.606;2023-02-12T16:52:25;9.5;99.9
43414;DHT22;29013;49.676;8.606;2023-02-12T16:57:47;9.5;99.9
43414;DHT22;29013;49.676;8.606;2023-02-12T17:03:13;9.3;99.9
43414;DHT22;29013;49.676;8.606;2023-02-12T17:08:31;9.2;99.9
43414;DHT22;29013;49.676;8.606;2023-02-12T17:13:57;9.2;99.9
43414;DHT22;29013;49.676;8.606;2023-02-12T17:19:22;9.1;99.9
43414;DHT22;29013;49.676;8.606;2023-02-12T17:24:49;8.9;99.9
43414;DHT22;29013;49.676;8.606;2023-02-12T17:30:15;8.9;99.9
43414;DHT22;29013;49.676;8.606;2023-02-12T17:35:37;8.7;99.9
43414;DHT22;29013;49.676;8.606;2023-02-12T17:40:57;8.7;99.9
43414;DHT22;29013;49.676;8.606;2023-02-12T17:46:17;8.5;99.9
43414;DHT22;29013;49.676;8.606;2023-02-12T17:51:39;8.5;99.9
43414;DHT22;29013;49.676;8.606;2023-02-12T17:57:03;8.4;99.9
43414;DHT22;29013;49.676;8.606;2023-02-12T18:02:28;8.4;99.9
43414;DHT22;29013;49.676;8.606;2023-02-12T18:07:53;8.4;99.9
43414;DHT22;29013;49.676;8.606;2023-02-12T18:13:16;8.4;99.9
43414;DHT22;29013;49.676;8.606;2023-02-12T18:18:35;8.3;99.9
43414;DHT22;29013;49.676;8.606;2023-02-12T18:23:59;8.2;99.9
43414;DHT22;29013;49.676;8.606;2023-02-12T18:29:24;8.0;99.9
43414;DHT22;29013;49.676;8.606;2023-02-12T18:34:47;7.8;99.9
43414;DHT22;29013;49.676;8.606;2023-02-12T18:40:11;7.5;99.9
43414;DHT22;29013;49.676;8.606;2023-02-12T18:45:35;7.3;99.9
43414;DHT22;29013;49.676;8.606;2023-02-12T18:51:03;7.2;99.9
43414;DHT22;29013;49.676;8.606;2023-02-12T18:56:43;7.2;99.9
43414;DHT22;29013;49.676;8.606;2023-02-12T19:02:03;7.3;99.9
43414;DHT22;29013;49.676;8.606;2023-02-12T19:07:50;7.1;99.9
43414;DHT22;29013;49.676;8.606;2023-02-12T19:13:13;7.2;99.9
43414;DHT22;29013;49.676;8.606;2023-02-12T19:19:01;6.8;99.9
43414;DHT22;29013;49.676;8.606;2023-02-12T19:24:20;6.9;99.9
43414;DHT22;29013;49.676;8.606;2023-02-12T19:29:43;6.8;99.9
43414;DHT22;29013;49.676;8.606;2023-02-12T19:35:11;6.7;99.9
43414;DHT22;29013;49.676;8.606;2023-02-12T19:40:31;6.7;99.9
43414;DHT22;29013;49.676;8.606;2023-02-12T19:46:00;6.5;99.9
43414;DHT22;29013;49.676;8.606;2023-02-12T19:51:23;6.4;99.9
43414;DHT22;29013;49.676;8.606;2023-02-12T19:56:47;6.2;99.9
43414;DHT22;29013;49.676;8.606;2023-02-12T20:02:11;6.1;99.9
43414;DHT22;29013;49.676;8.606;2023-02-12T20:07:37;6.0;99.9
43414;DHT22;29013;49.676;8.606;2023-02-12T20:13:01;6.0;99.9
43414;DHT22;29013;49.676;8.606;2023-02-12T20:18:26;6.0;99.9
43414;DHT22;29013;49.676;8.606;2023-02-12T20:23:49;6.0;99.9
43414;DHT22;29013;49.676;8.606;2023-02-12T20:29:11;6.0;99.9
43414;DHT22;29013;49.676;8.606;2023-02-12T20:34:29;6.0;99.9
43414;DHT22;29013;49.676;8.606;2023-02-12T20:39:53;5.9;99.9
43414;DHT22;29013;49.676;8.606;2023-02-12T20:45:13;5.8;99.9
43414;DHT22;29013;49.676;8.606;2023-02-12T20:50:35;5.6;99.9
43414;DHT22;29013;49.676;8.606;2023-02-12T20:56:01;5.4;99.9
43414;DHT22;29013;49.676;8.606;2023-02-12T21:01:28;5.3;99.9
43414;DHT22;29013;49.676;8.606;2023-02-12T21:06:54;5.3;99.9
43414;DHT22;29013;49.676;8.606;2023-02-12T21:12:18;5.3;99.9
43414;DHT22;29013;49.676;8.606;2023-02-12T21:17:43;5.4;99.9
43414;DHT22;29013;49.676;8.606;2023-02-12T21:23:06;5.4;99.9
43414;DHT22;29013;49.676;8.606;2023-02-12T21:28:45;5.4;99.9
43414;DHT22;29013;49.676;8.606;2023-02-12T21:34:07;5.5;99.9
43414;DHT22;29013;49.676;8.606;2023-02-12T21:39:28;5.4;99.9
43414;DHT22;29013;49.676;8.606;2023-02-12T21:44:53;5.4;99.9
43414;DHT22;29013;49.676;8.606;2023-02-12T21:50:17;5.3;99.9
43414;DHT22;29013;49.676;8.606;2023-02-12T21:55:40;5.1;99.9
43414;DHT22;29013;49.676;8.606;2023-02-12T22:01:09;4.9;99.9
43414;DHT22;29013;49.676;8.606;2023-02-12T22:06:31;4.8;99.9
43414;DHT22;29013;49.676;8.606;2023-02-12T22:11:53;4.8;99.9
43414;DHT22;29013;49.676;8.606;2023-02-12T22:17:18;4.7;99.9
43414;DHT22;29013;49.676;8.606;2023-02-12T22:22:42;4.6;99.9
43414;DHT22;29013;49.676;8.606;2023-02-12T22:28:03;4.6;99.9
43414;DHT22;29013;49.676;8.606;2023-02-12T22:33:26;4.7;99.9
43414;DHT22;29013;49.676;8.606;2023-02-12T22:38:51;4.7;99.9
43414;DHT22;29013;49.676;8.606;2023-02-12T22:44:11;4.7;99.9
43414;DHT22;29013;49.676;8.606;2023-02-12T22:49:31;4.6;99.9
43414;DHT22;29013;49.676;8.606;2023-02-12T22:54:56;4.6;99.9
43414;DHT22;29013;49.676;8.606;2023-02-12T23:00:22;4.6;99.9
43414;DHT22;29013;49.676;8.606;2023-02-12T23:05:45;4.6;99.9
43414;DHT22;29013;49.676;8.606;2023-02-12T23:11:10;4.4;99.9
43414;DHT22;29013;49.676;8.606;2023-02-12T23:16:34;4.2;99.9
43414;DHT22;29013;49.676;8.606;2023-02-12T23:21:58;4.1;99.9
43414;DHT22;29013;49.676;8.606;2023-02-12T23:27:15;4.1;99.9
43414;DHT22;29013;49.676;8.606;2023-02-12T23:32:36;4.1;99.9
43414;DHT22;29013;49.676;8.606;2023-02-12T23:37:57;4.0;99.9
43414;DHT22;29013;49.676;8.606;2023-02-12T23:43:21;3.8;99.9
43414;DHT22;29013;49.676;8.606;2023-02-12T23:48:46;3.8;99.9
43414;DHT22;29013;49.676;8.606;2023-02-12T23:54:05;3.9;99.9
43414;DHT22;29013;49.676;8.606;2023-02-12T23:59:29;3.9;99.9
